Time;durP1;ratioP1;P1;durP2;ratioP2;P2;SDS_P1;SDS_P2;PMS_P1;PMS_P2;Temp;Humidity;BMP_temperature;BMP_pressure;BME280_temperature;BME280_humidity;BME280_pressure;Samples;Min_cycle;Max_cycle;Signal;HPM_P1;HPM_P2
2022/05/23 00:00:00;;;;;;;5.63;2.70;;;;;;;16.40;71.47;94862.69;5066827;28;20490;-76
2022/05/23 00:02:26;;;;;;;4.50;2.90;;;;;;;16.34;71.79;94869.31;5063857;28;20048;-77
2022/05/23 00:04:51;;;;;;;4.95;2.80;;;;;;;16.32;70.17;94860.91;5050575;28;20056;-77
2022/05/23 00:07:26;;;;;;;5.15;3.05;;;;;;;16.31;70.48;94859.31;5048582;28;20713;-76
2022/05/23 00:09:51;;;;;;;;;;;;;;;16.23;71.31;94849.53;5049050;28;20056;-76
2022/05/23 00:12:18;;;;;;;5.03;2.88;;;;;;;16.30;70.66;94836.53;5047427;28;19925;-77
2022/05/23 00:14:43;;;;;;;5.35;2.65;;;;;;;16.22;70.47;94840.78;5048727;28;20045;-76
2022/05/23 00:17:11;;;;;;;4.80;2.70;;;;;;;16.17;71.03;94848.16;5062578;28;20083;-76
2022/05/23 00:19:37;;;;;;;5.43;2.88;;;;;;;16.18;70.84;94844.41;5057327;28;20047;-76
2022/05/23 00:22:03;;;;;;;5.20;2.78;;;;;;;16.09;70.82;94837.28;5056029;28;20036;-76
2022/05/23 00:24:28;;;;;;;6.05;3.00;;;;;;;16.16;70.68;94841.28;5054801;28;20044;-76
2022/05/23 00:26:56;;;;;;;6.00;2.92;;;;;;;16.22;70.21;94845.31;5062341;28;20033;-76
2022/05/23 00:29:22;;;;;;;5.82;2.90;;;;;;;16.02;70.39;94831.69;5059643;28;20041;-77
2022/05/23 00:37:22;;;;;;;9.02;3.00;;;;;;;16.20;69.72;94831.59;5066776;28;20037;-76
2022/05/23 00:39:48;;;;;;;8.45;3.08;;;;;;;16.11;70.43;94829.75;5058801;28;20111;-76
2022/05/23 00:45:02;;;;;;;4.75;2.47;;;;;;;15.99;71.55;94819.06;5050272;28;20044;-76
2022/05/23 00:47:29;;;;;;;4.28;2.80;;;;;;;15.92;71.52;94816.13;5048439;28;20110;-76
2022/05/23 00:49:55;;;;;;;5.78;2.85;;;;;;;15.94;70.47;94824.53;5051801;28;20048;-76
2022/05/23 00:52:44;;;;;;;8.82;2.95;;;;;;;15.84;71.39;94840.84;5061199;28;20044;-76
2022/05/23 00:55:19;;;;;;;4.63;3.00;;;;;;;15.83;71.17;94845.38;5067358;28;20082;-76
2022/05/23 00:57:49;;;;;;;5.75;3.20;;;;;;;15.89;71.03;94844.09;5058475;28;20075;-76
2022/05/23 01:00:15;;;;;;;6.68;2.92;;;;;;;15.85;71.02;94837.09;5050607;28;20036;-76
2022/05/23 01:02:46;;;;;;;8.02;2.95;;;;;;;15.87;70.91;94845.50;5062872;28;20045;-76
2022/05/23 01:05:12;;;;;;;4.93;2.90;;;;;;;16.03;71.93;94846.53;5048398;28;20051;-76
2022/05/23 01:07:37;;;;;;;7.78;3.40;;;;;;;15.85;70.56;94842.41;5048268;28;20415;-76
2022/05/23 01:10:04;;;;;;;8.20;3.00;;;;;;;15.76;71.44;94840.53;5047686;28;20037;-76
2022/05/23 01:12:30;;;;;;;5.60;3.30;;;;;;;15.87;71.39;94829.56;5048262;28;20037;-76
2022/05/23 01:14:58;;;;;;;7.60;3.65;;;;;;;15.92;71.23;94826.75;5050207;28;20043;-75
2022/05/23 01:17:24;;;;;;;7.80;3.08;;;;;;;15.94;71.80;94824.53;5055817;28;20041;-75
2022/05/23 01:19:51;;;;;;;7.05;3.10;;;;;;;15.83;71.32;94820.69;5057847;28;20052;-75
2022/05/23 01:22:32;;;;;;;8.43;3.00;;;;;;;15.87;71.50;94818.97;5067316;28;20124;-75
2022/05/23 01:25:23;;;;;;;5.70;3.15;;;;;;;15.91;72.68;94819.88;5054910;28;20045;-78
2022/05/23 01:27:51;;;;;;;6.88;3.10;;;;;;;15.83;72.31;94815.38;5070607;28;20666;-78
2022/05/23 01:30:18;;;;;;;4.93;3.00;;;;;;;15.84;71.69;94815.06;5069698;28;20045;-77
2022/05/23 01:32:43;;;;;;;5.78;2.92;;;;;;;15.89;72.35;94820.22;5061824;28;20558;-78
2022/05/23 01:35:10;;;;;;;5.65;3.17;;;;;;;15.86;72.25;94812.09;5052876;28;20045;-77
2022/05/23 01:37:36;;;;;;;5.68;3.00;;;;;;;15.84;73.33;94814.31;5054099;28;20040;-77
2022/05/23 01:40:04;;;;;;;6.90;3.05;;;;;;;15.84;73.83;94809.00;5053108;28;20048;-77
2022/05/23 01:42:29;;;;;;;8.75;3.15;;;;;;;15.85;74.23;94805.25;5072150;28;20110;-77
2022/05/23 01:44:55;;;;;;;6.85;2.90;;;;;;;15.80;73.53;94802.78;5061953;28;20041;-78
2022/05/23 01:47:21;;;;;;;6.28;3.15;;;;;;;15.76;72.91;94800.72;5062052;28;20044;-77
2022/05/23 01:49:47;;;;;;;4.55;3.00;;;;;;;15.83;73.69;94802.13;5062991;28;20450;-76
2022/05/23 01:52:13;;;;;;;6.03;3.00;;;;;;;15.84;72.13;94793.06;5065933;28;20041;-76
2022/05/23 01:54:39;;;;;;;5.90;3.28;;;;;;;15.80;73.05;94797.47;5070466;28;20094;-75
2022/05/23 01:57:07;;;;;;;6.38;3.13;;;;;;;15.76;73.46;94792.78;5065432;28;20037;-75
2022/05/23 02:02:18;;;;;;;6.20;3.58;;;;;;;15.79;73.29;94790.59;5065386;28;20090;-76
2022/05/23 02:04:45;;;;;;;6.10;3.05;;;;;;;15.75;74.17;94791.22;5053496;28;20115;-75
2022/05/23 02:07:12;;;;;;;7.90;3.53;;;;;;;15.73;73.62;94788.09;5050564;28;20037;-75
2022/05/23 02:09:38;;;;;;;8.55;3.63;;;;;;;15.74;72.89;94794.94;5057066;28;20060;-75
2022/05/23 02:12:06;;;;;;;5.07;3.28;;;;;;;15.72;73.04;94791.84;5053295;28;20037;-75
2022/05/23 02:14:31;;;;;;;5.80;3.35;;;;;;;15.72;71.93;94793.72;5050929;28;20044;-75
2022/05/23 02:16:57;;;;;;;4.80;3.05;;;;;;;15.65;72.77;94791.56;5060335;28;20406;-75
2022/05/23 02:19:22;;;;;;;7.57;3.40;;;;;;;15.66;73.25;94787.03;5061630;28;20045;-75
2022/05/23 02:21:48;;;;;;;5.10;3.15;;;;;;;15.59;73.30;94779.59;5059535;28;20041;-76
2022/05/23 02:24:13;;;;;;;10.23;3.38;;;;;;;15.56;73.84;94786.31;5060711;28;20558;-76
2022/05/23 02:26:39;;;;;;;6.68;3.50;;;;;;;15.55;74.21;94794.59;5056215;28;20402;-75
2022/05/23 02:29:07;;;;;;;5.28;3.42;;;;;;;15.56;72.87;94798.78;5063632;28;20037;-75
2022/05/23 02:31:32;;;;;;;8.05;3.40;;;;;;;15.53;72.95;94799.41;5054918;28;20102;-75
2022/05/23 02:33:58;;;;;;;7.05;3.20;;;;;;;15.48;73.08;94802.25;5050344;28;20049;-75
2022/05/23 02:36:23;;;;;;;5.85;3.30;;;;;;;15.56;74.48;94793.50;5052712;28;20102;-75
2022/05/23 02:38:49;;;;;;;5.57;3.10;;;;;;;15.53;74.42;94786.16;5061969;28;20080;-75
2022/05/23 02:41:14;;;;;;;4.78;3.25;;;;;;;15.42;74.81;94794.47;5063454;28;20037;-75
2022/05/23 02:43:40;;;;;;;7.43;3.50;;;;;;;15.40;75.57;94788.72;5050928;28;20094;-76
2022/05/23 02:46:05;;;;;;;7.07;3.25;;;;;;;15.47;75.94;94768.88;5050276;28;20040;-76
2022/05/23 02:48:31;;;;;;;6.53;3.40;;;;;;;15.44;76.05;94758.91;5053372;28;20044;-75
2022/05/23 02:50:56;;;;;;;7.55;3.22;;;;;;;15.35;75.61;94751.75;5067475;28;20047;-76
2022/05/23 02:53:22;;;;;;;7.97;3.53;;;;;;;15.34;75.19;94760.81;5067639;28;20040;-76
2022/05/23 02:55:48;;;;;;;5.35;3.20;;;;;;;15.40;76.36;94753.44;5060282;28;20098;-76
2022/05/23 02:58:13;;;;;;;6.60;3.63;;;;;;;15.29;75.60;94742.44;5060134;28;20818;-76
2022/05/23 03:00:38;;;;;;;6.45;3.65;;;;;;;15.30;75.72;94754.59;5065062;28;20107;-76
2022/05/23 03:03:08;;;;;;;8.32;3.53;;;;;;;15.32;75.68;94751.63;5049649;28;20055;-76
2022/05/23 03:05:46;;;;;;;7.90;3.60;;;;;;;15.36;75.47;94750.66;5049778;28;20049;-76
2022/05/23 03:08:15;;;;;;;6.38;3.90;;;;;;;15.43;75.49;94747.53;5050265;28;20571;-76
2022/05/23 03:10:40;;;;;;;5.22;3.50;;;;;;;15.42;76.79;94754.69;5066157;28;20064;-76
2022/05/23 03:13:06;;;;;;;6.45;3.33;;;;;;;15.44;75.37;94743.75;5068069;28;20071;-75
2022/05/23 03:15:33;;;;;;;8.45;4.00;;;;;;;15.42;75.57;94736.13;5058943;28;20441;-75
2022/05/23 03:17:59;;;;;;;5.97;3.53;;;;;;;15.38;75.84;94729.91;5058010;28;20067;-76
2022/05/23 03:20:25;;;;;;;8.80;3.53;;;;;;;15.29;76.31;94731.81;5068521;28;20047;-75
2022/05/23 03:28:20;;;;;;;7.13;3.53;;;;;;;15.33;76.22;94740.69;5050859;28;20045;-76
2022/05/23 03:30:46;;;;;;;11.02;3.95;;;;;;;15.25;76.52;94746.81;5060324;28;20119;-76
2022/05/23 03:33:12;;;;;;;8.90;3.75;;;;;;;15.12;77.86;94747.78;5052496;28;20047;-75
2022/05/23 03:35:38;;;;;;;8.23;3.97;;;;;;;15.07;77.80;94741.56;5064351;28;20052;-76
2022/05/23 03:38:05;;;;;;;7.03;4.03;;;;;;;15.13;77.72;94738.72;5066854;28;20494;-75
2022/05/23 03:40:32;;;;;;;6.45;3.83;;;;;;;15.18;77.38;94735.91;5052009;28;20044;-75
2022/05/23 03:42:58;;;;;;;6.72;4.20;;;;;;;15.06;77.97;94734.72;5063256;28;20041;-75
2022/05/23 03:45:24;;;;;;;7.47;4.00;;;;;;;15.13;78.37;94728.13;5049231;28;20059;-75
2022/05/23 03:47:51;;;;;;;8.82;4.20;;;;;;;15.30;77.46;94730.75;5051252;28;20052;-75
2022/05/23 03:50:18;;;;;;;8.30;4.20;;;;;;;15.20;77.39;94712.50;5066196;28;20036;-75
2022/05/23 03:52:44;;;;;;;7.88;4.28;;;;;;;15.14;78.07;94713.78;5056509;28;20151;-76
2022/05/23 03:55:09;;;;;;;7.00;4.28;;;;;;;15.15;78.13;94715.34;5049202;28;20045;-76
2022/05/23 03:57:35;;;;;;;9.10;4.60;;;;;;;15.14;78.63;94716.44;5054985;28;20039;-76
2022/05/23 04:00:01;;;;;;;7.05;4.18;;;;;;;15.22;77.96;94710.34;5048896;28;20057;-76
2022/05/23 04:02:27;;;;;;;6.50;3.90;;;;;;;15.33;77.63;94711.53;5047429;28;20091;-75
2022/05/23 04:04:52;;;;;;;6.28;4.07;;;;;;;15.36;76.81;94705.59;5048633;28;20045;-75
2022/05/23 04:07:18;;;;;;;10.82;4.82;;;;;;;15.20;77.49;94696.63;5048693;28;20048;-76
2022/05/23 04:09:44;;;;;;;6.55;4.32;;;;;;;15.28;77.56;94692.38;5057813;28;20115;-76
2022/05/23 04:12:09;;;;;;;10.35;4.53;;;;;;;15.22;77.58;94689.91;5052858;28;20044;-76
2022/05/23 04:14:35;;;;;;;7.10;4.47;;;;;;;15.29;77.37;94683.34;5048871;28;20063;-76
2022/05/23 04:17:00;;;;;;;7.95;4.55;;;;;;;15.25;76.79;94688.50;5048566;28;20037;-76
2022/05/23 04:19:26;;;;;;;12.20;4.25;;;;;;;15.31;76.98;94694.41;5048402;28;20107;-76
2022/05/23 04:21:52;;;;;;;6.80;4.47;;;;;;;15.24;77.59;94692.22;5060864;28;20089;-76
2022/05/23 04:24:18;;;;;;;12.20;4.20;;;;;;;15.31;77.50;94692.50;5067670;28;20418;-76
2022/05/23 04:26:44;;;;;;;9.70;4.50;;;;;;;15.18;78.16;94685.56;5061504;28;20037;-76
2022/05/23 04:29:11;;;;;;;8.98;4.47;;;;;;;15.24;77.65;94689.59;5052442;28;20048;-76
2022/05/23 04:31:37;;;;;;;9.50;4.68;;;;;;;15.30;78.03;94690.97;5063702;28;20052;-76
2022/05/23 04:36:48;;;;;;;8.10;4.38;;;;;;;15.39;77.27;94689.06;5054089;28;20110;-76
2022/05/23 04:39:14;;;;;;;9.32;4.57;;;;;;;15.41;77.36;94686.88;5059885;28;20414;-76
2022/05/23 04:41:40;;;;;;;9.77;4.90;;;;;;;15.45;77.53;94675.63;5048366;28;20052;-76
2022/05/23 04:44:07;;;;;;;9.02;4.80;;;;;;;15.50;77.50;94689.47;5048120;28;20080;-76
2022/05/23 04:46:32;;;;;;;8.88;4.90;;;;;;;15.52;78.10;94678.56;5048895;28;20041;-75
2022/05/23 04:51:43;;;;;;;;;;;;;;;15.60;77.21;94688.31;5058069;28;20044;-75
2022/05/23 04:54:08;;;;;;;13.70;5.13;;;;;;;15.58;77.82;94685.22;5069903;28;19920;-75
2022/05/23 04:56:34;;;;;;;8.48;4.80;;;;;;;15.56;78.61;94666.22;5068179;28;20043;-74
2022/05/23 04:59:00;;;;;;;8.77;4.85;;;;;;;15.62;78.21;94670.22;5069405;28;20048;-74
2022/05/23 05:01:26;;;;;;;9.48;5.18;;;;;;;15.66;77.90;94671.13;5065944;28;20114;-73
2022/05/23 05:03:57;;;;;;;9.95;5.22;;;;;;;15.64;78.06;94662.69;5071215;28;20123;-75
2022/05/23 05:06:24;;;;;;;12.20;5.10;;;;;;;15.62;78.22;94662.25;5064032;28;20049;-75
2022/05/23 05:08:51;;;;;;;10.73;5.22;;;;;;;15.75;77.70;94657.81;5053395;28;20048;-74
2022/05/23 05:11:17;;;;;;;14.20;5.07;;;;;;;15.79;78.47;94655.31;5060525;28;20037;-75
2022/05/23 05:13:43;;;;;;;12.77;5.40;;;;;;;15.80;78.47;94648.91;5067758;28;20110;-83
2022/05/23 05:16:10;;;;;;;8.80;5.15;;;;;;;15.76;79.40;94649.53;5053185;28;20045;-76
2022/05/23 05:18:35;;;;;;;13.10;5.70;;;;;;;15.93;78.48;94653.16;5056396;28;20159;-75
2022/05/23 05:21:06;;;;;;;9.98;5.43;;;;;;;15.90;78.62;94643.22;5053315;28;20045;-75
2022/05/23 05:23:32;;;;;;;12.00;5.40;;;;;;;15.83;78.86;94640.28;5061817;28;20052;-75
2022/05/23 05:25:57;;;;;;;8.52;5.15;;;;;;;15.91;78.83;94644.78;5069104;28;20067;-74
2022/05/23 05:28:23;;;;;;;13.75;5.97;;;;;;;15.92;78.13;94644.44;5066386;28;20037;-77
2022/05/23 05:30:54;;;;;;;11.90;5.40;;;;;;;15.97;78.30;94643.47;5066526;28;20094;-75
2022/05/23 05:33:25;;;;;;;11.75;5.95;;;;;;;16.03;78.53;94636.88;5068580;28;20044;-77
2022/05/23 05:35:56;;;;;;;9.38;5.65;;;;;;;15.98;79.90;94645.03;5070723;28;20041;-77
2022/05/23 05:38:28;;;;;;;10.98;5.88;;;;;;;16.07;79.41;94637.75;5070725;28;20040;-80
2022/05/23 05:41:08;;;;;;;10.90;5.65;;;;;;;16.13;80.27;94642.88;5052367;28;20037;-77
2022/05/23 05:43:39;;;;;;;14.15;5.97;;;;;;;16.29;79.30;94638.50;5053496;28;20414;-77
2022/05/23 05:46:13;;;;;;;11.52;5.85;;;;;;;16.45;78.27;94636.81;5054365;28;20048;-77
2022/05/23 05:48:41;;;;;;;12.77;5.72;;;;;;;16.59;78.02;94643.69;5052758;28;20445;-77
2022/05/23 05:51:09;;;;;;;11.35;5.60;;;;;;;16.66;77.58;94645.81;5064189;28;20110;-77
2022/05/23 05:53:35;;;;;;;14.20;5.95;;;;;;;16.63;78.36;94641.94;5067424;28;20054;-78
2022/05/23 05:56:03;;;;;;;12.13;5.57;;;;;;;16.67;77.49;94645.47;5058114;28;21353;-79
2022/05/23 05:58:29;;;;;;;11.85;6.05;;;;;;;16.77;77.92;94647.72;5073108;28;20040;-78
2022/05/23 06:00:55;;;;;;;9.80;5.93;;;;;;;16.91;77.50;94646.66;5063514;28;20052;-77
2022/05/23 06:03:20;;;;;;;20.08;6.13;;;;;;;17.13;77.50;94648.88;5071739;28;20049;-80
2022/05/23 06:13:54;;;;;;;13.70;6.13;;;;;;;17.24;76.41;94648.44;5070150;28;20094;-79
2022/05/23 06:16:19;;;;;;;14.23;6.00;;;;;;;17.26;76.04;94657.63;5067353;28;20382;-79
2022/05/23 06:18:46;;;;;;;9.30;5.75;;;;;;;17.26;77.67;94656.88;5058330;28;20041;-77
2022/05/23 06:21:12;;;;;;;10.68;6.35;;;;;;;17.31;77.17;94659.28;5052066;28;20106;-75
2022/05/23 06:23:43;;;;;;;13.13;5.90;;;;;;;17.50;75.90;94666.72;5058802;28;20097;-75
2022/05/23 06:26:08;;;;;;;14.40;6.13;;;;;;;17.52;75.81;94669.81;5063501;28;20092;-78
2022/05/23 06:28:36;;;;;;;15.80;5.82;;;;;;;17.48;75.37;94669.72;5064453;28;20043;-77
2022/05/23 06:31:02;;;;;;;11.05;6.05;;;;;;;17.56;75.89;94670.72;5052574;28;20041;-77
2022/05/23 06:33:28;;;;;;;12.70;5.72;;;;;;;17.67;75.47;94671.81;5053371;28;20068;-76
2022/05/23 06:35:55;;;;;;;13.68;6.40;;;;;;;17.69;75.88;94674.13;5053089;28;20045;-76
2022/05/23 06:38:21;;;;;;;11.52;6.38;;;;;;;17.68;75.57;94672.56;5059975;28;20113;-76
2022/05/23 06:40:51;;;;;;;15.02;6.75;;;;;;;17.55;75.47;94679.78;5051827;28;20071;-75
2022/05/23 06:43:17;;;;;;;11.75;6.30;;;;;;;17.79;75.58;94679.00;5053560;28;20128;-77
2022/05/23 06:45:42;;;;;;;16.00;6.28;;;;;;;17.86;74.27;94688.28;5067775;28;20044;-78
2022/05/23 06:48:09;;;;;;;14.43;6.07;;;;;;;18.30;72.82;94691.88;5058717;28;20056;-82
2022/05/23 06:50:35;;;;;;;11.45;5.82;;;;;;;18.34;71.97;94686.63;5052136;28;20045;-76
2022/05/23 06:53:00;;;;;;;16.13;6.38;;;;;;;18.20;72.54;94691.56;5071226;28;20087;-77
2022/05/23 06:55:26;;;;;;;9.13;5.97;;;;;;;18.49;70.67;94699.22;5067450;28;22381;-80
2022/05/23 06:57:51;;;;;;;12.77;6.35;;;;;;;18.32;71.13;94702.19;5053607;28;20041;-78
2022/05/23 07:00:18;;;;;;;13.25;6.13;;;;;;;18.26;72.16;94706.19;5055799;28;20048;-77
2022/05/23 07:02:44;;;;;;;14.13;6.65;;;;;;;18.31;72.66;94703.28;5071420;28;20496;-78
2022/05/23 07:13:26;;;;;;;14.40;5.65;;;;;;;18.39;73.89;94721.03;5054731;28;20053;-83
2022/05/23 07:15:52;;;;;;;12.38;6.18;;;;;;;18.60;71.74;94731.47;5064102;28;20178;-78
2022/05/23 07:18:19;;;;;;;16.02;7.13;;;;;;;18.50;73.01;94747.94;5061997;28;20094;-77
2022/05/23 07:20:45;;;;;;;15.93;6.50;;;;;;;18.29;72.25;94769.44;5064883;28;20692;-78
2022/05/23 07:23:12;;;;;;;12.35;6.50;;;;;;;18.47;72.45;94813.34;5054335;28;20056;-77
2022/05/23 07:25:38;;;;;;;13.80;6.63;;;;;;;18.71;72.03;94827.72;5054865;28;20041;-77
2022/05/23 07:28:04;;;;;;;15.60;5.93;;;;;;;18.64;71.94;94811.53;5063174;28;20409;-78
2022/05/23 07:30:30;;;;;;;13.55;6.80;;;;;;;18.65;71.35;94807.75;5065357;28;20033;-78
2022/05/23 07:32:57;;;;;;;14.65;6.72;;;;;;;18.82;69.65;94823.47;5063489;28;20058;-78
2022/05/23 07:35:24;;;;;;;17.67;6.90;;;;;;;18.82;69.02;94823.47;5066523;28;20105;-78
2022/05/23 07:37:50;;;;;;;12.48;6.43;;;;;;;18.70;68.73;94813.63;5068704;28;20060;-79
2022/05/23 07:40:16;;;;;;;19.27;6.97;;;;;;;18.66;68.55;94803.97;5064934;28;20072;-77
2022/05/23 07:42:43;;;;;;;16.88;6.72;;;;;;;18.51;68.78;94814.22;5059731;28;20037;-78
2022/05/23 07:45:10;;;;;;;16.80;6.07;;;;;;;18.38;69.54;94815.38;5068898;28;20041;-77
2022/05/23 07:47:36;;;;;;;13.88;6.57;;;;;;;18.12;69.02;94808.53;5071109;28;20039;-77
2022/05/23 07:50:02;;;;;;;15.77;6.35;;;;;;;17.93;70.45;94800.31;5065285;28;20040;-77
2022/05/23 07:52:28;;;;;;;10.25;6.13;;;;;;;18.23;68.33;94819.50;5061651;28;20554;-78
2022/05/23 08:00:37;;;;;;;15.77;6.72;;;;;;;17.36;69.66;94768.13;5055962;28;20585;-78
2022/05/23 08:03:14;;;;;;;18.83;7.85;;;;;;;17.01;74.66;94783.66;5050004;28;20521;-78
2022/05/23 08:05:40;;;;;;;19.23;7.63;;;;;;;16.98;74.86;94790.38;5050248;28;20044;-78
2022/05/23 08:08:06;;;;;;;16.08;7.30;;;;;;;16.86;73.58;94793.75;5062540;28;20520;-77
2022/05/23 08:10:31;;;;;;;16.30;6.60;;;;;;;16.98;74.40;94790.38;5064232;28;20120;-78
2022/05/23 08:12:58;;;;;;;11.52;7.45;;;;;;;17.22;76.35;94778.28;5061161;28;20564;-78
2022/05/23 08:15:26;;;;;;;16.48;6.95;;;;;;;17.38;73.20;94771.22;5062663;28;20107;-79
2022/05/23 08:17:52;;;;;;;15.57;6.90;;;;;;;17.18;72.13;94764.09;5061678;28;20048;-79
2022/05/23 08:20:18;;;;;;;18.27;7.55;;;;;;;17.34;72.54;94775.66;5063241;28;20045;-79
2022/05/23 08:22:45;;;;;;;15.98;6.93;;;;;;;17.39;73.41;94772.78;5059923;28;20509;-78
2022/05/23 08:25:11;;;;;;;12.95;6.38;;;;;;;17.48;75.51;94754.84;5059226;28;20043;-78
2022/05/23 08:27:38;;;;;;;12.85;7.38;;;;;;;16.95;79.37;94740.56;5054433;28;20048;-78
2022/05/23 08:30:05;;;;;;;18.75;8.95;;;;;;;16.61;84.48;94707.91;5062581;28;20182;-79
2022/05/23 08:32:31;;;;;;;19.85;8.38;;;;;;;16.79;87.07;94666.78;5056508;28;20553;-78
2022/05/23 08:34:56;;;;;;;14.57;8.27;;;;;;;16.66;85.44;94651.88;5063469;28;20041;-78
2022/05/23 08:37:22;;;;;;;17.88;8.38;;;;;;;16.90;87.28;94645.13;5060645;28;20041;-78
2022/05/23 08:39:48;;;;;;;19.33;9.50;;;;;;;16.49;89.53;94628.16;5053894;28;20048;-78
2022/05/23 08:42:42;;;;;;;18.45;9.32;;;;;;;16.54;88.06;94627.97;5057248;28;20071;-80
2022/05/23 08:45:35;;;;;;;23.27;9.33;;;;;;;16.74;88.10;94644.94;5058762;28;20462;-79
2022/05/23 08:48:27;;;;;;;22.10;9.70;;;;;;;17.11;87.61;94656.44;5057193;28;20069;-80
2022/05/23 08:51:04;;;;;;;23.67;10.10;;;;;;;17.31;87.18;94659.28;5066833;28;20063;-78
2022/05/23 08:53:50;;;;;;;20.00;9.52;;;;;;;17.10;85.67;94659.41;5074166;28;20086;-78
2022/05/23 08:56:33;;;;;;;16.45;9.02;;;;;;;17.38;86.90;94670.16;5061360;28;20036;-79
2022/05/23 08:59:02;;;;;;;17.42;8.88;;;;;;;17.66;80.84;94658.84;5056993;28;20533;-77
2022/05/23 09:01:43;;;;;;;17.35;8.95;;;;;;;17.39;82.30;94649.66;5055185;28;20061;-78
2022/05/23 09:04:15;;;;;;;17.23;8.93;;;;;;;17.59;83.13;94653.31;5055685;28;20060;-78
2022/05/23 09:06:48;;;;;;;18.48;8.35;;;;;;;17.66;81.63;94648.19;5073914;28;20064;-78
2022/05/23 09:09:17;;;;;;;13.63;7.97;;;;;;;17.94;78.12;94647.50;5069558;28;20041;-78
2022/05/23 09:11:59;;;;;;;16.75;8.18;;;;;;;18.26;76.24;94642.28;5054040;28;20406;-78
2022/05/23 09:14:24;;;;;;;19.65;7.55;;;;;;;18.25;77.39;94646.84;5056742;28;20036;-78
2022/05/23 09:16:54;;;;;;;13.30;7.65;;;;;;;18.60;76.02;94626.81;5065057;28;20425;-79
2022/05/23 09:19:26;;;;;;;17.83;7.90;;;;;;;18.69;72.47;94627.41;5063959;28;20040;-78
2022/05/23 09:22:14;;;;;;;12.68;6.65;;;;;;;18.83;76.93;94627.78;5062275;28;20045;-78
2022/05/23 09:24:46;;;;;;;16.35;7.05;;;;;;;19.16;72.34;94601.91;5055702;28;20733;-79
2022/05/23 09:27:16;;;;;;;11.00;6.68;;;;;;;19.26;69.66;94597.94;5056250;28;20090;-77
2022/05/23 09:29:41;;;;;;;13.38;6.55;;;;;;;19.35;69.27;94606.50;5057007;28;20036;-79
2022/05/23 09:32:17;;;;;;;14.63;6.03;;;;;;;19.34;69.89;94591.63;5056619;28;20052;-78
2022/05/23 09:34:54;;;;;;;17.15;6.60;;;;;;;19.50;67.92;94580.91;5053016;28;20037;-79
2022/05/23 09:37:44;;;;;;;16.30;6.60;;;;;;;19.86;68.23;94585.13;5064530;28;20032;-78
2022/05/23 09:40:31;;;;;;;11.98;6.07;;;;;;;19.95;67.35;94570.78;5057310;28;20044;-79
2022/05/23 09:49:14;;;;;;;21.95;7.10;;;;;;;20.77;65.05;94566.16;5055921;28;20036;-79
2022/05/23 09:52:00;;;;;;;16.40;5.57;;;;;;;20.93;61.80;94558.78;5069755;28;20037;-79
2022/05/23 09:54:30;;;;;;;13.73;5.55;;;;;;;21.05;62.27;94559.72;5069065;28;20040;-79
2022/05/23 09:57:02;;;;;;;14.13;5.65;;;;;;;21.36;61.01;94563.19;5062739;28;20033;-78
2022/05/23 09:59:29;;;;;;;14.95;5.22;;;;;;;21.46;58.35;94546.50;5066100;28;20045;-78
2022/05/23 10:01:55;;;;;;;16.70;6.00;;;;;;;21.62;58.89;94546.34;5054358;28;20098;-78
2022/05/23 10:04:30;;;;;;;13.90;5.50;;;;;;;21.60;56.58;94552.06;5054380;28;20598;-79
2022/05/23 10:06:56;;;;;;;17.08;5.82;;;;;;;21.66;57.24;94543.72;5060867;28;20041;-78
2022/05/23 10:09:53;;;;;;;13.85;5.80;;;;;;;21.85;58.79;94530.19;5061405;28;20063;-77
2022/05/23 10:12:22;;;;;;;13.60;5.82;;;;;;;21.96;57.74;94530.31;5061620;28;20037;-77
2022/05/23 10:14:52;;;;;;;22.45;5.82;;;;;;;21.74;57.09;94532.75;5059092;28;20045;-76
2022/05/23 10:17:34;;;;;;;13.90;5.80;;;;;;;21.85;58.69;94524.84;5054783;28;20042;-77
2022/05/23 10:20:37;;;;;;;9.98;5.72;;;;;;;22.26;58.24;94521.41;5052386;28;20473;-77
2022/05/23 10:23:07;;;;;;;11.98;5.40;;;;;;;22.52;56.42;94507.13;5054669;28;20044;-76
2022/05/23 10:25:43;;;;;;;14.02;5.25;;;;;;;23.02;55.05;94506.72;5056185;28;20044;-76
2022/05/23 10:28:17;;;;;;;11.57;5.63;;;;;;;22.92;53.71;94497.47;5066535;28;20104;-79
2022/05/23 10:30:56;;;;;;;;;;;;;;;22.96;55.06;94498.25;5058101;28;20048;-77
2022/05/23 10:33:27;;;;;;;17.25;6.65;;;;;;;22.81;54.91;94496.63;5066222;28;19960;-77
2022/05/23 10:36:11;;;;;;;18.05;7.38;;;;;;;22.94;55.12;94495.19;5066519;28;20064;-77
2022/05/23 10:44:42;;;;;;;13.82;6.18;;;;;;;23.84;52.22;94478.75;5067835;28;20040;-77
2022/05/23 10:47:45;;;;;;;10.50;6.50;;;;;;;23.76;53.36;94471.81;5055233;28;20037;-78
2022/05/23 10:50:19;;;;;;;13.63;6.60;;;;;;;23.86;53.59;94476.44;5054982;28;20051;-77
2022/05/23 10:52:51;;;;;;;19.70;6.47;;;;;;;24.27;52.17;94465.41;5052343;28;20041;-77
2022/05/23 10:55:32;;;;;;;14.35;5.75;;;;;;;24.72;50.84;94465.84;5052856;28;20071;-77
2022/05/23 10:58:36;;;;;;;13.20;6.18;;;;;;;24.89;48.65;94458.88;5059297;28;20497;-76
2022/05/23 11:01:19;;;;;;;15.13;6.10;;;;;;;24.94;48.68;94457.72;5054058;28;20049;-81
2022/05/23 11:04:05;;;;;;;15.95;6.75;;;;;;;25.35;48.34;94457.25;5060458;28;20044;-78
2022/05/23 11:06:45;;;;;;;13.05;5.80;;;;;;;25.38;49.16;94461.84;5059141;28;20071;-79
2022/05/23 11:09:45;;;;;;;20.05;6.50;;;;;;;25.97;48.95;94452.31;5065024;28;20040;-75
2022/05/23 11:12:58;;;;;;;16.08;6.35;;;;;;;25.97;46.40;94465.03;5055027;28;20044;-75
2022/05/23 11:15:53;;;;;;;14.52;6.18;;;;;;;25.42;47.74;94462.59;5054278;28;20067;-78
2022/05/23 11:18:37;;;;;;;17.98;6.32;;;;;;;25.34;50.07;94466.50;5057345;28;20064;-76
2022/05/23 11:21:11;;;;;;;18.60;6.90;;;;;;;25.15;50.15;94464.97;5063799;28;20041;-74
2022/05/23 11:23:36;;;;;;;;;;;;;;;25.97;48.30;94452.31;5058615;28;20047;-74
2022/05/23 11:26:07;;;;;;;14.18;5.90;;;;;;;26.89;46.91;94451.28;5060982;28;19920;-77
2022/05/23 11:34:30;;;;;;;12.55;6.32;;;;;;;27.00;44.94;94432.28;5055492;28;20040;-75
2022/05/23 11:39:46;;;;;;;14.40;6.15;;;;;;;26.61;44.50;94418.00;5064806;28;20391;-76
2022/05/23 11:42:30;;;;;;;13.20;5.72;;;;;;;27.02;44.07;94422.59;5052452;28;20045;-74
2022/05/23 11:48:00;;;;;;;17.20;6.88;;;;;;;26.93;43.15;94408.84;5051542;28;20073;-77
2022/05/23 11:50:30;;;;;;;10.43;5.18;;;;;;;27.95;42.66;94401.78;5056538;28;20039;-76
2022/05/23 11:53:23;;;;;;;13.82;5.30;;;;;;;28.28;41.17;94395.91;5052392;28;20101;-76
2022/05/23 11:55:52;;;;;;;15.15;5.25;;;;;;;28.46;40.75;94390.97;5049887;28;20517;-78
2022/05/23 11:58:37;;;;;;;14.43;5.78;;;;;;;29.21;40.51;94393.53;5057824;28;20116;-77
2022/05/23 12:01:12;;;;;;;13.18;5.57;;;;;;;28.21;40.44;94396.03;5054331;28;20047;-76
2022/05/23 12:03:52;;;;;;;11.18;5.70;;;;;;;28.92;40.08;94398.69;5051946;28;20392;-76
2022/05/23 12:06:28;;;;;;;13.10;5.30;;;;;;;29.61;38.46;94376.44;5053561;28;20047;-76
2022/05/23 12:09:05;;;;;;;10.07;5.13;;;;;;;29.04;40.92;94374.47;5050699;28;20052;-76
2022/05/23 12:11:38;;;;;;;13.88;6.13;;;;;;;28.99;38.65;94363.38;5050488;28;20049;-77
2022/05/23 12:14:43;;;;;;;15.07;5.30;;;;;;;29.89;39.21;94356.88;5053627;28;20037;-76
2022/05/23 12:17:12;;;;;;;16.80;5.40;;;;;;;29.91;38.27;94350.25;5058088;28;20040;-78
2022/05/23 12:19:38;;;;;;;14.25;5.78;;;;;;;28.56;39.63;94345.19;5053016;28;20182;-77
2022/05/23 12:22:18;;;;;;;23.05;5.75;;;;;;;28.51;39.45;94354.56;5053588;28;20637;-77
2022/05/23 12:24:56;;;;;;;12.88;5.28;;;;;;;29.03;40.46;94339.69;5053340;28;20071;-77
2022/05/23 12:27:45;;;;;;;14.02;5.32;;;;;;;28.72;40.03;94331.78;5052510;28;20098;-78
2022/05/23 12:30:16;;;;;;;12.68;5.03;;;;;;;29.28;38.95;94330.31;5054498;28;20413;-78
2022/05/23 12:32:43;;;;;;;15.50;5.70;;;;;;;28.93;38.45;94319.00;5055446;28;20079;-77
2022/05/23 12:35:08;;;;;;;17.20;5.20;;;;;;;28.78;39.52;94330.13;5055568;28;20119;-77
2022/05/23 12:37:43;;;;;;;18.10;5.20;;;;;;;29.32;38.82;94318.22;5053264;28;20045;-77
2022/05/23 12:40:29;;;;;;;16.95;5.25;;;;;;;29.37;36.87;94325.09;5056254;28;20048;-78
2022/05/23 12:43:28;;;;;;;12.10;5.30;;;;;;;30.18;37.27;94315.50;5051600;28;20086;-77
2022/05/23 12:46:35;;;;;;;20.10;5.85;;;;;;;29.73;39.11;94332.44;5056543;28;20045;-77
2022/05/23 12:49:09;;;;;;;13.02;5.38;;;;;;;31.04;34.76;94325.34;5060592;28;20178;-76
2022/05/23 12:51:42;;;;;;;18.17;5.82;;;;;;;29.54;37.56;94337.50;5062817;28;20049;-76